createdAt,value
2022-11-05T00:00:32.125Z,0
2022-11-05T00:01:33.103Z,0
2022-11-05T00:02:33.622Z,0
2022-11-05T00:03:34.029Z,0
2022-11-05T00:04:40.533Z,0
2022-11-05T00:05:34.445Z,0
2022-11-05T00:06:35.670Z,0
2022-11-05T00:07:36.579Z,0
2022-11-05T00:08:37.509Z,0
2022-11-05T00:09:38.140Z,0
2022-11-05T00:10:38.752Z,0
2022-11-05T00:11:39.363Z,0
2022-11-05T00:12:40.561Z,0
2022-11-05T00:13:40.405Z,0
2022-11-05T00:14:41.609Z,0
2022-11-05T00:15:41.516Z,0
2022-11-05T00:16:42.724Z,0
2022-11-05T00:17:42.970Z,0
2022-11-05T00:18:42.871Z,0
2022-11-05T00:19:43.483Z,0
2022-11-05T00:20:44.411Z,0
2022-11-05T00:21:44.630Z,0
2022-11-05T00:22:45.548Z,0
2022-11-05T00:23:45.533Z,0
2022-11-05T00:24:46.419Z,0
2022-11-05T00:25:47.604Z,0
2022-11-05T00:26:47.534Z,0
2022-11-05T00:27:48.013Z,0
2022-11-05T00:28:48.213Z,0
2022-11-05T00:29:48.821Z,0
2022-11-05T00:30:50.011Z,0
2022-11-05T00:31:49.928Z,0
2022-11-05T00:32:50.970Z,0
2022-11-05T00:33:51.264Z,0
2022-11-05T00:34:51.748Z,0
2022-11-05T00:35:52.233Z,0
2022-11-05T00:36:51.858Z,0
2022-11-05T00:37:59.577Z,0
2022-11-05T00:38:53.487Z,0
2022-11-05T00:39:54.665Z,0
2022-11-05T00:40:54.614Z,0
2022-11-05T00:41:54.801Z,0
2022-11-05T00:42:55.688Z,0
2022-11-05T00:43:56.349Z,0
2022-11-05T00:44:57.835Z,0
2022-11-05T00:45:57.474Z,0
2022-11-05T00:47:05.277Z,0
2022-11-05T00:47:59.516Z,0
2022-11-05T00:48:59.984Z,0
2022-11-05T00:50:00.588Z,0
2022-11-05T00:51:00.772Z,0
2022-11-05T00:52:01.400Z,0
2022-11-05T00:53:02.068Z,0
2022-11-05T00:54:02.218Z,0
2022-11-05T00:55:02.827Z,0
2022-11-05T00:56:03.325Z,0
2022-11-05T00:57:10.457Z,0
2022-11-05T00:58:05.644Z,0
2022-11-05T00:59:05.678Z,0
2022-11-05T01:00:06.733Z,0
2022-11-05T01:01:06.926Z,0
2022-11-05T01:02:08.548Z,0
2022-11-05T01:03:09.295Z,0
2022-11-05T01:04:09.320Z,0
2022-11-05T01:05:10.503Z,0
2022-11-05T01:06:10.825Z,0
2022-11-05T01:07:12.162Z,0
2022-11-05T01:08:13.215Z,0
2022-11-05T01:09:14.143Z,0
2022-11-05T01:10:14.775Z,0
2022-11-05T01:11:15.403Z,0
2022-11-05T01:12:16.606Z,0
2022-11-05T01:13:25.044Z,0
2022-11-05T01:14:18.073Z,0
2022-11-05T01:15:17.979Z,0
2022-11-05T01:16:18.565Z,0
2022-11-05T01:17:19.189Z,0
2022-11-05T01:18:20.146Z,0
2022-11-05T01:19:21.039Z,0
2022-11-05T01:20:21.953Z,0
2022-11-05T01:21:22.860Z,0
2022-11-05T01:22:24.182Z,0
2022-11-05T01:23:26.842Z,0
2022-11-05T01:24:24.524Z,0
2022-11-05T01:25:25.410Z,0
2022-11-05T01:26:26.020Z,0
2022-11-05T01:27:27.200Z,0
2022-11-05T01:28:28.068Z,0
2022-11-05T01:29:28.802Z,0
2022-11-05T01:30:29.685Z,0
2022-11-05T01:31:30.597Z,0
2022-11-05T01:32:31.485Z,0
2022-11-05T01:33:32.617Z,0
2022-11-05T01:34:32.610Z,0
2022-11-05T01:35:32.518Z,0
2022-11-05T01:36:33.999Z,0
2022-11-05T01:37:34.230Z,0
2022-11-05T01:38:34.560Z,0
2022-11-05T01:39:35.745Z,0
2022-11-05T01:40:36.079Z,0
2022-11-05T01:41:36.120Z,0
2022-11-05T01:42:37.030Z,0
2022-11-05T01:43:37.344Z,0
2022-11-05T01:44:38.344Z,0
2022-11-05T01:45:38.678Z,0
2022-11-05T01:46:39.565Z,0
2022-11-05T01:47:41.051Z,0
2022-11-05T01:48:40.991Z,0
2022-11-05T01:49:41.902Z,0
2022-11-05T01:50:42.384Z,0
2022-11-05T01:51:43.374Z,0
2022-11-05T01:52:43.625Z,0
2022-11-05T01:53:44.533Z,0
2022-11-05T01:54:44.647Z,0
2022-11-05T01:55:45.845Z,0
2022-11-05T01:56:45.735Z,0
2022-11-05T01:57:46.373Z,0
2022-11-05T01:58:47.448Z,0
2022-11-05T01:59:47.649Z,0
2022-11-05T02:00:47.537Z,0
2022-11-05T02:01:48.589Z,0
2022-11-05T02:02:49.876Z,0
2022-11-05T02:03:49.860Z,0
2022-11-05T02:04:50.848Z,0
2022-11-05T02:05:51.156Z,0
2022-11-05T02:06:52.212Z,0
2022-11-05T02:07:52.718Z,0
2022-11-05T02:08:52.647Z,0
2022-11-05T02:09:53.301Z,0
2022-11-05T02:10:54.212Z,0
2022-11-05T02:11:55.395Z,0
2022-11-05T02:12:55.878Z,0
2022-11-05T02:13:55.803Z,0
2022-11-05T02:14:55.909Z,0
2022-11-05T02:15:56.524Z,0
2022-11-05T02:16:57.151Z,0
2022-11-05T02:17:58.354Z,0
2022-11-05T02:18:58.881Z,0
2022-11-05T02:19:59.344Z,0
2022-11-05T02:21:03.482Z,0
2022-11-05T02:21:59.513Z,0
2022-11-05T02:23:00.532Z,0
2022-11-05T02:24:01.460Z,0
2022-11-05T02:25:01.301Z,0
2022-11-05T02:26:02.487Z,0
2022-11-05T02:27:03.099Z,0
2022-11-05T02:28:03.709Z,0
2022-11-05T02:29:03.615Z,0
2022-11-05T02:30:04.540Z,0
2022-11-05T02:31:05.736Z,0
2022-11-05T02:32:05.619Z,0
2022-11-05T02:33:06.099Z,0
2022-11-05T02:34:06.607Z,0
2022-11-05T02:35:06.619Z,0
2022-11-05T02:36:06.938Z,0
2022-11-05T02:37:08.144Z,0
2022-11-05T02:38:08.380Z,0
2022-11-05T02:39:08.692Z,0
2022-11-05T02:40:09.616Z,0
2022-11-05T02:41:09.794Z,0
2022-11-05T02:42:15.261Z,0
2022-11-05T02:43:10.177Z,0
2022-11-05T02:44:10.220Z,0
2022-11-05T02:45:10.914Z,0
2022-11-05T02:46:11.521Z,0
2022-11-05T02:47:17.043Z,0
2022-11-05T02:48:12.895Z,0
2022-11-05T02:49:14.132Z,0
2022-11-05T02:50:13.451Z,0
2022-11-05T02:51:14.650Z,0
2022-11-05T02:52:15.266Z,0
2022-11-05T02:53:16.467Z,0
2022-11-05T02:54:15.800Z,0
2022-11-05T02:55:16.796Z,0
2022-11-05T02:56:16.704Z,0
2022-11-05T02:57:17.890Z,0
2022-11-05T02:58:17.520Z,0
2022-11-05T02:59:18.131Z,0
2022-11-05T03:00:19.337Z,0
2022-11-05T03:01:20.404Z,0
2022-11-05T03:02:21.524Z,0
2022-11-05T03:03:22.244Z,0
2022-11-05T03:04:22.322Z,0
2022-11-05T03:05:22.172Z,0
2022-11-05T03:06:23.649Z,0
2022-11-05T03:07:23.252Z,0
2022-11-05T03:08:23.883Z,0
2022-11-05T03:09:23.968Z,0
2022-11-05T03:10:24.875Z,0
2022-11-05T03:11:25.358Z,0
2022-11-05T03:12:25.552Z,0
2022-11-05T03:13:25.761Z,0
2022-11-05T03:14:26.664Z,0
2022-11-05T03:15:27.948Z,0
2022-11-05T03:16:27.838Z,0
2022-11-05T03:17:28.441Z,0
2022-11-05T03:18:28.617Z,0
2022-11-05T03:19:29.953Z,0
2022-11-05T03:20:29.849Z,0
2022-11-05T03:21:31.053Z,0
2022-11-05T03:22:31.233Z,0
2022-11-05T03:23:31.156Z,0
2022-11-05T03:24:31.473Z,0
2022-11-05T03:25:32.443Z,0
2022-11-05T03:26:33.374Z,0
2022-11-05T03:27:33.556Z,0
2022-11-05T03:28:34.438Z,0
2022-11-05T03:29:34.321Z,0
2022-11-05T03:30:35.238Z,0
2022-11-05T03:31:35.869Z,0
2022-11-05T03:32:36.757Z,0
2022-11-05T03:33:37.686Z,0
2022-11-05T03:34:38.920Z,0
2022-11-05T03:35:38.926Z,0
2022-11-05T03:36:39.829Z,0
2022-11-05T03:37:40.437Z,0
2022-11-05T03:38:41.070Z,0
2022-11-05T03:39:41.720Z,0
2022-11-05T03:40:42.630Z,0
2022-11-05T03:41:43.813Z,0
2022-11-05T03:42:44.126Z,0
2022-11-05T03:43:44.466Z,0
2022-11-05T03:44:45.075Z,0
2022-11-05T03:45:45.772Z,0
2022-11-05T03:46:46.380Z,0
2022-11-05T03:47:46.691Z,0
2022-11-05T03:48:48.109Z,0
2022-11-05T03:49:48.178Z,0
2022-11-05T03:50:52.348Z,0
2022-11-05T03:51:49.961Z,0
2022-11-05T03:52:49.882Z,0
2022-11-05T03:53:50.821Z,0
2022-11-05T03:54:51.148Z,0
2022-11-05T03:55:51.951Z,0
2022-11-05T03:56:51.984Z,0
2022-11-05T03:57:53.679Z,0
2022-11-05T03:58:58.623Z,0
2022-11-05T03:59:54.367Z,0
2022-11-05T04:00:53.997Z,0
2022-11-05T04:01:55.333Z,0
2022-11-05T04:02:55.153Z,0
2022-11-05T04:03:55.246Z,0
2022-11-05T04:04:55.785Z,0
2022-11-05T04:05:55.477Z,0
2022-11-05T04:06:56.402Z,0
2022-11-05T04:07:57.011Z,0
2022-11-05T04:08:57.938Z,0
2022-11-05T04:09:58.555Z,0
2022-11-05T04:10:59.488Z,0
2022-11-05T04:12:00.670Z,0
2022-11-05T04:13:00.279Z,0
2022-11-05T04:14:01.177Z,0
2022-11-05T04:15:01.804Z,0
2022-11-05T04:16:02.585Z,0
2022-11-05T04:17:03.200Z,0
2022-11-05T04:18:04.102Z,0
2022-11-05T04:19:04.435Z,0
2022-11-05T04:20:05.360Z,0
2022-11-05T04:21:06.261Z,0
2022-11-05T04:22:06.887Z,0
2022-11-05T04:23:08.011Z,0
2022-11-05T04:24:08.627Z,0
2022-11-05T04:25:09.264Z,0
2022-11-05T04:26:09.941Z,0
2022-11-05T04:27:10.849Z,0
2022-11-05T04:28:11.761Z,0
2022-11-05T04:29:19.079Z,0
2022-11-05T04:30:12.704Z,0
2022-11-05T04:31:14.184Z,0
2022-11-05T04:32:13.795Z,0
2022-11-05T04:33:16.203Z,0
2022-11-05T04:34:15.389Z,0
2022-11-05T04:35:16.632Z,0
2022-11-05T04:36:16.508Z,0
2022-11-05T04:37:17.688Z,0
2022-11-05T04:38:18.618Z,0
2022-11-05T04:39:18.551Z,0
2022-11-05T04:40:19.728Z,0
2022-11-05T04:41:21.045Z,0
2022-11-05T04:42:20.958Z,0
2022-11-05T04:43:26.997Z,0
2022-11-05T04:44:23.218Z,0
2022-11-05T04:45:23.553Z,0
2022-11-05T04:46:24.253Z,0
2022-11-05T04:47:23.874Z,0
2022-11-05T04:48:25.073Z,0
2022-11-05T04:49:25.702Z,0
2022-11-05T04:50:26.238Z,0
2022-11-05T04:51:25.831Z,0
2022-11-05T04:52:26.734Z,0
2022-11-05T04:53:26.922Z,0
2022-11-05T04:54:26.848Z,0
2022-11-05T04:55:27.780Z,0
2022-11-05T04:56:27.885Z,0
2022-11-05T04:57:28.495Z,0
2022-11-05T04:58:29.133Z,0
2022-11-05T04:59:29.340Z,0
2022-11-05T05:00:30.640Z,0
2022-11-05T05:01:31.158Z,0
2022-11-05T05:02:31.065Z,0
2022-11-05T05:03:31.547Z,0
2022-11-05T05:04:31.473Z,0
2022-11-05T05:05:32.725Z,0
2022-11-05T05:06:33.417Z,0
2022-11-05T05:07:33.803Z,0
2022-11-05T05:08:35.002Z,0
2022-11-05T05:09:35.306Z,0
2022-11-05T05:10:34.917Z,0
2022-11-05T05:11:35.529Z,0
2022-11-05T05:12:36.422Z,0
2022-11-05T05:13:37.319Z,0
2022-11-05T05:14:37.505Z,0
2022-11-05T05:15:38.410Z,0
2022-11-05T05:16:38.410Z,0
2022-11-05T05:17:39.030Z,0
2022-11-05T05:18:45.110Z,0
2022-11-05T05:19:40.668Z,0
2022-11-05T05:20:41.899Z,0
2022-11-05T05:21:42.367Z,0
2022-11-05T05:22:42.584Z,0
2022-11-05T05:23:43.200Z,0
2022-11-05T05:24:45.380Z,0
2022-11-05T05:25:43.218Z,0
2022-11-05T05:26:44.207Z,0
2022-11-05T05:27:44.823Z,0
2022-11-05T05:28:46.025Z,0
2022-11-05T05:29:46.213Z,0
2022-11-05T05:30:47.093Z,0
2022-11-05T05:31:46.970Z,0
2022-11-05T05:32:47.876Z,0
2022-11-05T05:33:48.079Z,0
2022-11-05T05:34:48.014Z,0
2022-11-05T05:35:48.540Z,0
2022-11-05T05:36:49.123Z,0
2022-11-05T05:37:49.325Z,0
2022-11-05T05:38:49.511Z,0
2022-11-05T05:39:49.452Z,0
2022-11-05T05:40:50.069Z,0
2022-11-05T05:41:50.579Z,0
2022-11-05T05:42:54.307Z,0
2022-11-05T05:43:51.615Z,0
2022-11-05T05:44:52.800Z,0
2022-11-05T05:45:52.984Z,0
2022-11-05T05:46:53.705Z,0
2022-11-05T05:47:54.191Z,0
2022-11-05T05:48:54.678Z,0
2022-11-05T05:49:54.868Z,0
2022-11-05T05:50:55.401Z,0
2022-11-05T05:51:55.040Z,0
2022-11-05T05:52:55.941Z,0
2022-11-05T05:53:56.872Z,4
2022-11-05T05:54:58.082Z,4
2022-11-05T05:55:57.391Z,0
2022-11-05T05:56:57.800Z,4
2022-11-05T05:57:58.984Z,4
2022-11-05T05:58:59.187Z,4
2022-11-05T05:59:59.518Z,4
2022-11-05T06:01:00.709Z,4
2022-11-05T06:02:01.610Z,4
2022-11-05T06:03:02.115Z,4
2022-11-05T06:04:02.406Z,8
2022-11-05T06:05:02.314Z,8
2022-11-05T06:06:02.835Z,8
2022-11-05T06:07:03.091Z,8
2022-11-05T06:08:02.695Z,8
2022-11-05T06:09:03.593Z,8
2022-11-05T06:10:04.823Z,8
2022-11-05T06:11:05.071Z,8
2022-11-05T06:12:05.402Z,4
2022-11-05T06:13:05.030Z,8
2022-11-05T06:14:06.399Z,4
2022-11-05T06:15:06.876Z,8
2022-11-05T06:16:06.786Z,8
2022-11-05T06:17:07.852Z,8
2022-11-05T06:18:08.467Z,8
2022-11-05T06:19:09.075Z,12
2022-11-05T06:20:10.260Z,8
2022-11-05T06:21:10.796Z,12
2022-11-05T06:22:10.721Z,12
2022-11-05T06:23:10.506Z,16
2022-11-05T06:24:11.259Z,16
2022-11-05T06:25:12.187Z,16
2022-11-05T06:26:13.127Z,16
2022-11-05T06:27:14.138Z,16
2022-11-05T06:28:15.234Z,20
2022-11-05T06:29:15.132Z,24
2022-11-05T06:30:16.322Z,28
2022-11-05T06:31:15.992Z,28
2022-11-05T06:32:16.625Z,28
2022-11-05T06:33:18.403Z,32
2022-11-05T06:34:17.710Z,32
2022-11-05T06:35:18.618Z,28
2022-11-05T06:36:20.327Z,28
2022-11-05T06:37:20.596Z,28
2022-11-05T06:38:21.211Z,36
2022-11-05T06:39:21.817Z,40
2022-11-05T06:40:22.533Z,40
2022-11-05T06:41:23.137Z,44
2022-11-05T06:42:31.403Z,40
2022-11-05T06:43:25.040Z,40
2022-11-05T06:44:25.648Z,40
2022-11-05T06:45:26.574Z,36
2022-11-05T06:46:27.483Z,40
2022-11-05T06:47:27.544Z,40
2022-11-05T06:48:28.723Z,40
2022-11-05T06:49:29.631Z,40
2022-11-05T06:50:29.839Z,40
2022-11-05T06:51:30.370Z,44
2022-11-05T06:52:30.839Z,44
2022-11-05T06:53:30.797Z,48
2022-11-05T06:54:31.404Z,52
2022-11-05T06:55:32.630Z,52
2022-11-05T06:56:33.604Z,52
2022-11-05T06:57:33.466Z,52
2022-11-05T06:58:33.815Z,56
2022-11-05T06:59:34.445Z,52
2022-11-05T07:00:35.285Z,52
2022-11-05T07:01:36.251Z,56
2022-11-05T07:02:36.094Z,52
2022-11-05T07:03:36.004Z,56
2022-11-05T07:04:36.211Z,60
2022-11-05T07:05:37.144Z,68
2022-11-05T07:06:42.943Z,76
2022-11-05T07:07:38.484Z,88
2022-11-05T07:08:38.399Z,100
2022-11-05T07:09:39.100Z,108
2022-11-05T07:10:39.607Z,112
2022-11-05T07:11:39.814Z,120
2022-11-05T07:12:40.295Z,124
2022-11-05T07:13:40.484Z,128
2022-11-05T07:14:41.092Z,136
2022-11-05T07:15:41.864Z,136
2022-11-05T07:16:43.073Z,132
2022-11-05T07:17:42.804Z,124
2022-11-05T07:18:43.704Z,112
2022-11-05T07:19:44.612Z,104
2022-11-05T07:20:45.637Z,96
2022-11-05T07:21:46.266Z,92
2022-11-05T07:22:46.161Z,92
2022-11-05T07:23:46.769Z,84
2022-11-05T07:24:47.658Z,88
2022-11-05T07:25:47.883Z,92
2022-11-05T07:26:49.319Z,96
2022-11-05T07:27:49.006Z,100
2022-11-05T07:28:49.220Z,112
2022-11-05T07:29:49.103Z,124
2022-11-05T07:30:50.289Z,136
2022-11-05T07:31:51.220Z,152
2022-11-05T07:32:51.135Z,164
2022-11-05T07:33:51.765Z,172
2022-11-05T07:34:51.678Z,176
2022-11-05T07:35:52.586Z,180
2022-11-05T07:36:54.123Z,196
2022-11-05T07:37:53.735Z,216
2022-11-05T07:39:00.024Z,236
2022-11-05T07:39:55.819Z,256
2022-11-05T07:40:56.428Z,264
2022-11-05T07:41:56.907Z,248
2022-11-05T07:42:57.323Z,232
2022-11-05T07:43:57.239Z,248
2022-11-05T07:44:58.156Z,276
2022-11-05T07:45:58.643Z,292
2022-11-05T07:46:58.973Z,292
2022-11-05T07:47:59.960Z,304
2022-11-05T07:49:01.142Z,320
2022-11-05T07:50:01.655Z,328
2022-11-05T07:51:01.254Z,340
2022-11-05T07:52:02.222Z,388
2022-11-05T07:53:02.704Z,460
2022-11-05T07:54:03.285Z,524
2022-11-05T07:55:03.774Z,572
2022-11-05T07:56:03.443Z,624
2022-11-05T07:57:04.344Z,652
2022-11-05T07:58:04.387Z,664
2022-11-05T07:59:04.717Z,660
2022-11-05T08:00:05.936Z,628
2022-11-05T08:01:07.790Z,600
2022-11-05T08:02:09.205Z,588
2022-11-05T08:03:15.562Z,572
2022-11-05T08:04:08.230Z,572
2022-11-05T08:05:09.449Z,608
2022-11-05T08:06:10.094Z,660
2022-11-05T08:07:11.436Z,676
2022-11-05T08:08:11.981Z,652
2022-11-05T08:09:12.885Z,644
2022-11-05T08:10:13.799Z,648
2022-11-05T08:11:14.389Z,636
2022-11-05T08:12:14.423Z,640
2022-11-05T08:13:15.669Z,624
2022-11-05T08:14:14.601Z,592
2022-11-05T08:15:15.247Z,548
2022-11-05T08:16:16.474Z,504
2022-11-05T08:17:24.165Z,444
2022-11-05T08:18:16.907Z,416
2022-11-05T08:19:17.837Z,392
2022-11-05T08:20:18.326Z,400
2022-11-05T08:21:18.238Z,444
2022-11-05T08:22:19.559Z,484
2022-11-05T08:23:20.805Z,492
2022-11-05T08:24:19.992Z,492
2022-11-05T08:25:19.905Z,496
2022-11-05T08:26:20.551Z,512
2022-11-05T08:27:21.458Z,564
2022-11-05T08:28:22.166Z,640
2022-11-05T08:29:22.766Z,704
2022-11-05T08:30:23.105Z,744
2022-11-05T08:31:24.324Z,740
2022-11-05T08:32:24.959Z,740
2022-11-05T08:33:25.816Z,796
2022-11-05T08:34:26.710Z,796
2022-11-05T08:35:27.896Z,828
2022-11-05T08:36:27.805Z,864
2022-11-05T08:37:28.334Z,820
2022-11-05T08:38:28.914Z,748
2022-11-05T08:39:29.119Z,708
2022-11-05T08:40:28.768Z,768
2022-11-05T08:41:30.276Z,904
2022-11-05T08:42:29.888Z,1028
2022-11-05T08:43:31.100Z,1180
2022-11-05T08:44:31.411Z,1252
2022-11-05T08:45:32.902Z,1244
2022-11-05T08:46:36.466Z,1200
2022-11-05T08:47:33.523Z,1148
2022-11-05T08:48:34.499Z,1152
2022-11-05T08:49:35.412Z,1184
2022-11-05T08:50:35.974Z,1168
2022-11-05T08:51:35.606Z,1160
2022-11-05T08:52:36.854Z,1056
2022-11-05T08:53:36.474Z,1016
2022-11-05T08:54:37.966Z,1064
2022-11-05T08:55:37.878Z,1128
2022-11-05T08:56:38.128Z,1116
2022-11-05T08:57:38.725Z,1060
2022-11-05T08:58:39.812Z,1100
2022-11-05T08:59:40.144Z,1140
2022-11-05T09:00:41.097Z,1188
2022-11-05T09:01:43.178Z,1236
2022-11-05T09:02:42.710Z,1280
2022-11-05T09:03:43.647Z,1316
2022-11-05T09:04:43.856Z,1316
2022-11-05T09:05:44.881Z,1232
2022-11-05T09:06:44.782Z,1116
2022-11-05T09:07:46.113Z,1036
2022-11-05T09:08:46.794Z,1032
2022-11-05T09:09:47.000Z,1032
2022-11-05T09:10:47.632Z,1024
2022-11-05T09:12:19.055Z,1028
2022-11-05T09:12:49.676Z,1072
2022-11-05T09:13:50.866Z,1176
2022-11-05T09:14:51.356Z,1216
2022-11-05T09:15:51.280Z,1184
2022-11-05T09:16:52.548Z,1128
2022-11-05T09:17:52.749Z,1104
2022-11-05T09:18:53.119Z,1100
2022-11-05T09:19:53.330Z,1084
2022-11-05T09:20:54.246Z,1052
2022-11-05T09:21:54.736Z,1000
2022-11-05T09:22:55.109Z,964
2022-11-05T09:23:55.302Z,916
2022-11-05T09:24:55.914Z,856
2022-11-05T09:25:56.550Z,800
2022-11-05T09:26:57.574Z,768
2022-11-05T09:27:58.055Z,744
2022-11-05T09:28:59.035Z,720
2022-11-05T09:29:59.239Z,716
2022-11-05T09:31:00.136Z,652
2022-11-05T09:32:00.471Z,612
2022-11-05T09:33:01.384Z,604
2022-11-05T09:34:01.723Z,676
2022-11-05T09:35:02.632Z,708
2022-11-05T09:36:03.563Z,684
2022-11-05T09:37:04.183Z,624
2022-11-05T09:38:12.275Z,744
2022-11-05T09:39:05.561Z,780
2022-11-05T09:40:04.936Z,732
2022-11-05T09:41:06.428Z,692
2022-11-05T09:42:06.654Z,652
2022-11-05T09:43:07.569Z,592
2022-11-05T09:44:08.202Z,580
2022-11-05T09:45:08.823Z,576
2022-11-05T09:46:10.035Z,608
2022-11-05T09:47:10.220Z,636
2022-11-05T09:48:10.834Z,680
2022-11-05T09:49:11.561Z,716
2022-11-05T09:50:12.535Z,784
2022-11-05T09:51:12.743Z,736
2022-11-05T09:52:13.928Z,616
2022-11-05T09:53:14.338Z,560
2022-11-05T09:54:14.598Z,524
2022-11-05T09:55:14.504Z,496
2022-11-05T09:56:14.420Z,492
2022-11-05T09:57:15.953Z,544
2022-11-05T09:58:15.614Z,592
2022-11-05T09:59:16.305Z,632
2022-11-05T10:00:16.202Z,676
2022-11-05T10:01:17.553Z,740
2022-11-05T10:02:17.941Z,784
2022-11-05T10:03:18.864Z,856
2022-11-05T10:04:19.098Z,1072
2022-11-05T10:05:21.558Z,1180
2022-11-05T10:06:19.571Z,1232
2022-11-05T10:07:19.897Z,1580
2022-11-05T10:08:20.809Z,1808
2022-11-05T10:09:21.877Z,2008
2022-11-05T10:10:22.490Z,1880
2022-11-05T10:11:22.407Z,1712
2022-11-05T10:12:23.640Z,1556
2022-11-05T10:13:25.052Z,1364
2022-11-05T10:14:24.387Z,1220
2022-11-05T10:15:24.990Z,1224
2022-11-05T10:16:25.905Z,1204
2022-11-05T10:17:27.104Z,980
2022-11-05T10:18:27.501Z,880
2022-11-05T10:19:28.053Z,888
2022-11-05T10:20:27.993Z,1016
2022-11-05T10:22:11.673Z,1080
2022-11-05T10:22:28.595Z,1096
2022-11-05T10:23:29.800Z,1104
2022-11-05T10:24:30.026Z,992
2022-11-05T10:25:29.925Z,852
2022-11-05T10:26:31.115Z,792
2022-11-05T10:27:31.625Z,908
2022-11-05T10:28:31.838Z,976
2022-11-05T10:29:31.805Z,1152
2022-11-05T10:30:32.423Z,1220
2022-11-05T10:31:40.975Z,1020
2022-11-05T10:32:33.900Z,992
2022-11-05T10:33:34.130Z,908
2022-11-05T10:34:35.028Z,868
2022-11-05T10:35:35.213Z,772
2022-11-05T10:36:36.419Z,748
2022-11-05T10:37:40.614Z,772
2022-11-05T10:38:36.747Z,832
2022-11-05T10:39:38.160Z,888
2022-11-05T10:40:38.079Z,948
2022-11-05T10:41:38.565Z,988
2022-11-05T10:42:39.312Z,1000
2022-11-05T10:43:39.511Z,1004
2022-11-05T10:44:39.849Z,1004
2022-11-05T10:45:40.769Z,1004
2022-11-05T10:46:40.659Z,968
2022-11-05T10:47:41.151Z,916
2022-11-05T10:48:49.433Z,900
2022-11-05T10:49:42.120Z,964
2022-11-05T10:50:43.335Z,1068
2022-11-05T10:51:43.825Z,1232
2022-11-05T10:52:44.742Z,1412
2022-11-05T10:53:44.943Z,1496
2022-11-05T10:54:46.208Z,1536
2022-11-05T10:55:46.131Z,1452
2022-11-05T10:56:46.473Z,1416
2022-11-05T10:57:46.714Z,1340
2022-11-05T10:58:46.906Z,1204
2022-11-05T10:59:47.596Z,1132
2022-11-05T11:00:49.045Z,1024
2022-11-05T11:01:50.111Z,936
2022-11-05T11:02:49.934Z,924
2022-11-05T11:03:50.261Z,928
2022-11-05T11:04:50.744Z,992
2022-11-05T11:05:51.037Z,1248
2022-11-05T11:06:51.237Z,1064
2022-11-05T11:07:51.416Z,968
2022-11-05T11:08:51.898Z,948
2022-11-05T11:09:52.388Z,936
2022-11-05T11:10:52.305Z,984
2022-11-05T11:11:52.918Z,1088
2022-11-05T11:12:53.861Z,1140
2022-11-05T11:13:54.352Z,1172
2022-11-05T11:14:53.991Z,1260
2022-11-05T11:15:55.181Z,1268
2022-11-05T11:16:55.112Z,1344
2022-11-05T11:17:55.754Z,1504
2022-11-05T11:18:56.664Z,1688
2022-11-05T11:19:56.988Z,1804
2022-11-05T11:20:56.906Z,1892
2022-11-05T11:21:57.827Z,1824
2022-11-05T11:22:58.467Z,1572
2022-11-05T11:23:59.361Z,1436
2022-11-05T11:25:00.426Z,1344
2022-11-05T11:26:01.624Z,1204
2022-11-05T11:27:01.529Z,1052
2022-11-05T11:28:02.459Z,944
2022-11-05T11:29:03.101Z,872
2022-11-05T11:30:03.598Z,808
2022-11-05T11:31:03.604Z,740
2022-11-05T11:32:05.090Z,660
2022-11-05T11:33:05.003Z,576
2022-11-05T11:34:05.724Z,520
2022-11-05T11:35:06.630Z,488
2022-11-05T11:36:06.835Z,488
2022-11-05T11:37:07.744Z,496
2022-11-05T11:38:07.663Z,532
2022-11-05T11:39:08.285Z,572
2022-11-05T11:40:10.305Z,608
2022-11-05T11:41:10.573Z,632
2022-11-05T11:42:11.063Z,664
2022-11-05T11:43:11.801Z,676
2022-11-05T11:44:12.421Z,700
2022-11-05T11:45:12.332Z,728
2022-11-05T11:46:21.034Z,760
2022-11-05T11:47:13.945Z,768
2022-11-05T11:48:14.569Z,764
2022-11-05T11:49:15.206Z,768
2022-11-05T11:50:15.839Z,788
2022-11-05T11:51:15.475Z,828
2022-11-05T11:52:16.385Z,912
2022-11-05T11:53:17.706Z,1048
2022-11-05T11:54:17.635Z,1220
2022-11-05T11:55:18.777Z,1408
2022-11-05T11:56:18.401Z,1548
2022-11-05T11:57:23.645Z,1588
2022-11-05T11:58:19.859Z,1608
2022-11-05T11:59:19.787Z,1604
2022-11-05T12:00:36.331Z,1552
2022-11-05T12:01:38.291Z,1528
2022-11-05T12:02:38.487Z,1508
2022-11-05T12:03:38.748Z,1488
2022-11-05T12:04:39.679Z,1484
2022-11-05T12:05:40.892Z,1508
2022-11-05T12:06:41.231Z,1532
2022-11-05T12:07:41.559Z,1516
2022-11-05T12:08:45.912Z,1436
2022-11-05T12:09:43.263Z,1352
2022-11-05T12:10:44.583Z,1284
2022-11-05T12:11:44.499Z,1256
2022-11-05T12:12:45.463Z,1248
2022-11-05T12:13:46.078Z,1224
2022-11-05T12:14:52.065Z,1192
2022-11-05T12:15:46.681Z,1160
2022-11-05T12:16:48.081Z,1148
2022-11-05T12:17:47.979Z,1160
2022-11-05T12:18:48.301Z,1176
2022-11-05T12:19:48.908Z,1192
2022-11-05T12:20:58.288Z,1180
2022-11-05T12:22:03.572Z,1144
2022-11-05T12:22:51.480Z,1104
2022-11-05T12:23:52.661Z,1052
2022-11-05T12:24:52.552Z,1012
2022-11-05T12:25:53.600Z,988
2022-11-05T12:26:54.494Z,972
2022-11-05T12:27:55.091Z,960
2022-11-05T12:29:25.149Z,964
2022-11-05T12:29:57.237Z,968
2022-11-05T12:30:58.513Z,964
2022-11-05T12:31:58.719Z,948
2022-11-05T12:32:59.320Z,940
2022-11-05T12:33:59.091Z,936
2022-11-05T12:34:59.992Z,944
2022-11-05T12:36:07.576Z,964
2022-11-05T12:37:01.462Z,976
2022-11-05T12:38:02.359Z,964
2022-11-05T12:39:02.249Z,932
2022-11-05T12:40:03.139Z,868
2022-11-05T12:41:04.490Z,820
2022-11-05T12:42:04.962Z,792
2022-11-05T12:43:09.104Z,788
2022-11-05T12:44:05.454Z,812
2022-11-05T12:45:05.083Z,848
2022-11-05T12:46:05.698Z,880
2022-11-05T12:47:06.317Z,896
2022-11-05T12:48:07.502Z,896
2022-11-05T12:49:07.403Z,880
2022-11-05T12:50:08.596Z,852
2022-11-05T12:51:08.735Z,820
2022-11-05T12:52:09.341Z,800
2022-11-05T12:53:09.811Z,788
2022-11-05T12:54:10.000Z,756
2022-11-05T12:55:10.897Z,712
2022-11-05T12:56:12.232Z,672
2022-11-05T12:57:12.115Z,656
2022-11-05T12:58:13.018Z,644
2022-11-05T12:59:13.543Z,652
2022-11-05T13:00:13.876Z,680
2022-11-05T13:01:13.919Z,728
2022-11-05T13:02:15.326Z,780
2022-11-05T13:03:15.576Z,796
2022-11-05T13:04:15.785Z,792
2022-11-05T13:05:15.676Z,768
2022-11-05T13:06:17.097Z,740
2022-11-05T13:07:16.086Z,700
2022-11-05T13:08:17.292Z,664
2022-11-05T13:09:17.212Z,636
2022-11-05T13:10:17.512Z,632
2022-11-05T13:11:18.638Z,640
2022-11-05T13:12:18.245Z,660
2022-11-05T13:13:19.907Z,684
2022-11-05T13:14:19.839Z,692
2022-11-05T13:15:19.849Z,724
2022-11-05T13:16:21.463Z,736
2022-11-05T13:17:22.080Z,756
2022-11-05T13:18:22.698Z,748
2022-11-05T13:19:23.176Z,724
2022-11-05T13:20:28.780Z,696
2022-11-05T13:21:23.501Z,676
2022-11-05T13:22:24.114Z,640
2022-11-05T13:23:24.860Z,628
2022-11-05T13:24:25.064Z,616
2022-11-05T13:25:24.684Z,612
2022-11-05T13:26:31.391Z,596
2022-11-05T13:27:26.310Z,612
2022-11-05T13:28:26.806Z,628
2022-11-05T13:29:27.297Z,636
2022-11-05T13:30:27.507Z,624
2022-11-05T13:31:27.795Z,592
2022-11-05T13:32:28.000Z,580
2022-11-05T13:33:28.611Z,560
2022-11-05T13:34:33.504Z,548
2022-11-05T13:35:30.303Z,532
2022-11-05T13:36:30.914Z,504
2022-11-05T13:37:31.839Z,480
2022-11-05T13:38:31.734Z,452
2022-11-05T13:39:33.218Z,440
2022-11-05T13:40:33.428Z,428
2022-11-05T13:41:33.771Z,420
2022-11-05T13:42:35.067Z,420
2022-11-05T13:43:35.405Z,420
2022-11-05T13:44:36.442Z,400
2022-11-05T13:45:36.662Z,376
2022-11-05T13:46:37.872Z,352
2022-11-05T13:47:37.797Z,340
2022-11-05T13:48:38.412Z,336
2022-11-05T13:49:39.054Z,348
2022-11-05T13:50:39.587Z,364
2022-11-05T13:51:45.146Z,380
2022-11-05T13:52:41.353Z,392
2022-11-05T13:53:41.560Z,412
2022-11-05T13:54:41.472Z,436
2022-11-05T13:55:41.960Z,452
2022-11-05T13:56:42.488Z,484
2022-11-05T13:57:42.979Z,508
2022-11-05T13:58:43.885Z,516
2022-11-05T13:59:44.128Z,524
2022-11-05T14:00:44.818Z,528
2022-11-05T14:01:47.083Z,520
2022-11-05T14:02:47.266Z,508
2022-11-05T14:03:47.950Z,492
2022-11-05T14:04:48.567Z,472
2022-11-05T14:05:49.570Z,448
2022-11-05T14:06:49.763Z,424
2022-11-05T14:07:50.778Z,408
2022-11-05T14:08:50.968Z,396
2022-11-05T14:09:51.879Z,388
2022-11-05T14:10:52.070Z,380
2022-11-05T14:11:53.395Z,380
2022-11-05T14:12:53.603Z,372
2022-11-05T14:13:53.514Z,372
2022-11-05T14:14:58.965Z,376
2022-11-05T14:15:55.777Z,380
2022-11-05T14:16:55.685Z,388
2022-11-05T14:17:56.304Z,404